sensor_id;sensor_type;location;lat;lon;timestamp;temperature;humidity
21770;DHT22;11046;49.558;8.674;2023-09-19T00:02:55;17.10;97.30
21770;DHT22;11046;49.558;8.674;2023-09-19T00:05:59;17.00;97.30
21770;DHT22;11046;49.558;8.674;2023-09-19T00:09:00;17.00;97.40
21770;DHT22;11046;49.558;8.674;2023-09-19T00:12:01;17.00;97.40
21770;DHT22;11046;49.558;8.674;2023-09-19T00:15:01;17.00;97.40
21770;DHT22;11046;49.558;8.674;2023-09-19T00:18:06;17.00;97.50
21770;DHT22;11046;49.558;8.674;2023-09-19T00:21:07;17.00;97.50
21770;DHT22;11046;49.558;8.674;2023-09-19T00:24:08;16.90;97.50
21770;DHT22;11046;49.558;8.674;2023-09-19T00:27:09;16.90;97.70
21770;DHT22;11046;49.558;8.674;2023-09-19T00:30:11;16.90;97.70
21770;DHT22;11046;49.558;8.674;2023-09-19T00:33:16;16.90;97.80
21770;DHT22;11046;49.558;8.674;2023-09-19T00:36:16;16.90;97.80
21770;DHT22;11046;49.558;8.674;2023-09-19T00:39:19;17.00;97.80
21770;DHT22;11046;49.558;8.674;2023-09-19T00:42:21;17.00;97.80
21770;DHT22;11046;49.558;8.674;2023-09-19T00:45:21;17.00;97.90
21770;DHT22;11046;49.558;8.674;2023-09-19T00:48:23;17.10;97.90
21770;DHT22;11046;49.558;8.674;2023-09-19T00:51:29;17.10;97.90
21770;DHT22;11046;49.558;8.674;2023-09-19T00:54:30;17.10;97.90
21770;DHT22;11046;49.558;8.674;2023-09-19T00:57:31;17.10;97.90
21770;DHT22;11046;49.558;8.674;2023-09-19T01:00:33;17.10;98.00
21770;DHT22;11046;49.558;8.674;2023-09-19T01:03:34;17.10;98.10
21770;DHT22;11046;49.558;8.674;2023-09-19T01:06:35;17.20;98.00
21770;DHT22;11046;49.558;8.674;2023-09-19T01:09:38;17.20;98.00
21770;DHT22;11046;49.558;8.674;2023-09-19T01:15:50;17.20;98.20
21770;DHT22;11046;49.558;8.674;2023-09-19T01:29:41;17.20;98.20
21770;DHT22;11046;49.558;8.674;2023-09-19T01:32:44;17.20;98.30
21770;DHT22;11046;49.558;8.674;2023-09-19T01:35:46;17.10;98.30
21770;DHT22;11046;49.558;8.674;2023-09-19T01:38:47;17.10;98.40
21770;DHT22;11046;49.558;8.674;2023-09-19T01:42:01;17.00;98.50
21770;DHT22;11046;49.558;8.674;2023-09-19T01:45:13;17.00;98.70
21770;DHT22;11046;49.558;8.674;2023-09-19T01:48:30;17.00;98.80
21770;DHT22;11046;49.558;8.674;2023-09-19T01:51:51;17.00;98.90
21770;DHT22;11046;49.558;8.674;2023-09-19T01:54:53;17.00;99.00
21770;DHT22;11046;49.558;8.674;2023-09-19T01:58:08;16.90;98.90
21770;DHT22;11046;49.558;8.674;2023-09-19T02:01:19;17.00;99.10
21770;DHT22;11046;49.558;8.674;2023-09-19T02:04:20;16.90;99.20
21770;DHT22;11046;49.558;8.674;2023-09-19T02:07:21;16.90;99.30
21770;DHT22;11046;49.558;8.674;2023-09-19T02:10:24;16.90;99.40
21770;DHT22;11046;49.558;8.674;2023-09-19T02:13:25;16.90;99.80
21770;DHT22;11046;49.558;8.674;2023-09-19T02:16:28;16.90;99.50
21770;DHT22;11046;49.558;8.674;2023-09-19T02:19:29;16.90;99.70
21770;DHT22;11046;49.558;8.674;2023-09-19T02:22:30;16.80;99.80
21770;DHT22;11046;49.558;8.674;2023-09-19T02:25:31;16.80;99.90
21770;DHT22;11046;49.558;8.674;2023-09-19T02:28:32;16.80;99.90
21770;DHT22;11046;49.558;8.674;2023-09-19T02:31:33;16.80;99.90
21770;DHT22;11046;49.558;8.674;2023-09-19T02:34:34;16.70;99.90
21770;DHT22;11046;49.558;8.674;2023-09-19T02:37:36;16.70;99.90
21770;DHT22;11046;49.558;8.674;2023-09-19T02:40:38;16.70;99.90
21770;DHT22;11046;49.558;8.674;2023-09-19T02:43:41;16.70;99.90
21770;DHT22;11046;49.558;8.674;2023-09-19T02:46:43;16.70;99.90
21770;DHT22;11046;49.558;8.674;2023-09-19T02:49:44;16.80;99.90
21770;DHT22;11046;49.558;8.674;2023-09-19T02:52:45;16.70;99.90
21770;DHT22;11046;49.558;8.674;2023-09-19T02:55:49;16.70;99.90
21770;DHT22;11046;49.558;8.674;2023-09-19T02:58:49;16.70;99.90
21770;DHT22;11046;49.558;8.674;2023-09-19T03:01:52;16.70;99.90
21770;DHT22;11046;49.558;8.674;2023-09-19T03:04:54;16.80;99.90
21770;DHT22;11046;49.558;8.674;2023-09-19T03:07:57;16.80;99.90
21770;DHT22;11046;49.558;8.674;2023-09-19T03:11:01;16.80;99.90
21770;DHT22;11046;49.558;8.674;2023-09-19T03:14:02;16.80;99.90
21770;DHT22;11046;49.558;8.674;2023-09-19T03:17:03;16.80;99.90
21770;DHT22;11046;49.558;8.674;2023-09-19T03:20:08;16.80;99.90
21770;DHT22;11046;49.558;8.674;2023-09-19T03:23:11;16.70;99.90
21770;DHT22;11046;49.558;8.674;2023-09-19T03:26:14;16.70;99.90
21770;DHT22;11046;49.558;8.674;2023-09-19T03:29:16;16.60;99.90
21770;DHT22;11046;49.558;8.674;2023-09-19T03:32:19;16.60;99.90
21770;DHT22;11046;49.558;8.674;2023-09-19T03:35:20;16.60;99.90
21770;DHT22;11046;49.558;8.674;2023-09-19T03:38:21;16.60;99.90
21770;DHT22;11046;49.558;8.674;2023-09-19T03:41:22;16.60;99.90
21770;DHT22;11046;49.558;8.674;2023-09-19T03:44:23;16.60;99.90
21770;DHT22;11046;49.558;8.674;2023-09-19T03:47:24;16.50;99.90
21770;DHT22;11046;49.558;8.674;2023-09-19T03:50:25;16.40;99.90
21770;DHT22;11046;49.558;8.674;2023-09-19T03:53:26;16.30;99.90
21770;DHT22;11046;49.558;8.674;2023-09-19T03:56:27;16.20;99.90
21770;DHT22;11046;49.558;8.674;2023-09-19T03:59:29;16.20;99.90
21770;DHT22;11046;49.558;8.674;2023-09-19T04:02:29;16.10;99.90
21770;DHT22;11046;49.558;8.674;2023-09-19T04:05:33;16.20;99.90
21770;DHT22;11046;49.558;8.674;2023-09-19T04:08:34;16.10;99.90
21770;DHT22;11046;49.558;8.674;2023-09-19T04:11:35;16.10;99.90
21770;DHT22;11046;49.558;8.674;2023-09-19T04:14:36;16.10;99.90
21770;DHT22;11046;49.558;8.674;2023-09-19T04:17:37;16.10;99.90
21770;DHT22;11046;49.558;8.674;2023-09-19T04:20:38;16.00;99.90
21770;DHT22;11046;49.558;8.674;2023-09-19T04:23:39;16.00;99.90
21770;DHT22;11046;49.558;8.674;2023-09-19T04:26:39;15.90;99.90
21770;DHT22;11046;49.558;8.674;2023-09-19T04:29:40;15.80;99.90
21770;DHT22;11046;49.558;8.674;2023-09-19T04:32:41;15.70;99.90
21770;DHT22;11046;49.558;8.674;2023-09-19T04:35:42;15.70;99.90
21770;DHT22;11046;49.558;8.674;2023-09-19T04:38:43;15.70;99.90
21770;DHT22;11046;49.558;8.674;2023-09-19T04:41:43;15.70;99.90
21770;DHT22;11046;49.558;8.674;2023-09-19T04:44:46;15.70;99.90
21770;DHT22;11046;49.558;8.674;2023-09-19T04:47:49;15.70;99.90
21770;DHT22;11046;49.558;8.674;2023-09-19T04:50:50;15.70;99.90
21770;DHT22;11046;49.558;8.674;2023-09-19T04:53:51;15.60;99.90
21770;DHT22;11046;49.558;8.674;2023-09-19T04:56:51;15.60;99.90
21770;DHT22;11046;49.558;8.674;2023-09-19T04:59:52;15.50;99.90
21770;DHT22;11046;49.558;8.674;2023-09-19T05:02:57;15.50;99.90
21770;DHT22;11046;49.558;8.674;2023-09-19T05:05:57;15.50;99.90
21770;DHT22;11046;49.558;8.674;2023-09-19T05:08:58;15.50;99.90
21770;DHT22;11046;49.558;8.674;2023-09-19T05:12:00;15.50;99.90
21770;DHT22;11046;49.558;8.674;2023-09-19T05:15:02;15.50;99.90
21770;DHT22;11046;49.558;8.674;2023-09-19T05:18:03;15.40;99.90
21770;DHT22;11046;49.558;8.674;2023-09-19T05:21:04;15.40;99.90
21770;DHT22;11046;49.558;8.674;2023-09-19T05:24:05;15.40;99.90
21770;DHT22;11046;49.558;8.674;2023-09-19T05:27:06;15.40;99.90
21770;DHT22;11046;49.558;8.674;2023-09-19T05:30:07;15.30;99.90
21770;DHT22;11046;49.558;8.674;2023-09-19T05:33:09;15.30;99.90
21770;DHT22;11046;49.558;8.674;2023-09-19T05:36:09;15.40;99.90
21770;DHT22;11046;49.558;8.674;2023-09-19T05:39:12;15.40;99.90
21770;DHT22;11046;49.558;8.674;2023-09-19T05:42:12;15.50;99.90
21770;DHT22;11046;49.558;8.674;2023-09-19T05:45:14;15.50;99.90
21770;DHT22;11046;49.558;8.674;2023-09-19T05:48:19;15.60;99.90
21770;DHT22;11046;49.558;8.674;2023-09-19T05:51:21;15.70;99.90
21770;DHT22;11046;49.558;8.674;2023-09-19T05:54:23;15.70;99.90
21770;DHT22;11046;49.558;8.674;2023-09-19T05:57:23;15.70;99.90
21770;DHT22;11046;49.558;8.674;2023-09-19T06:00:25;15.70;99.90
21770;DHT22;11046;49.558;8.674;2023-09-19T06:03:27;15.70;99.90
21770;DHT22;11046;49.558;8.674;2023-09-19T06:06:29;15.80;99.90
21770;DHT22;11046;49.558;8.674;2023-09-19T06:09:30;15.80;99.90
21770;DHT22;11046;49.558;8.674;2023-09-19T06:12:32;15.90;99.90
21770;DHT22;11046;49.558;8.674;2023-09-19T06:15:37;15.90;99.90
21770;DHT22;11046;49.558;8.674;2023-09-19T06:18:39;15.90;99.90
21770;DHT22;11046;49.558;8.674;2023-09-19T06:21:39;16.00;99.80
21770;DHT22;11046;49.558;8.674;2023-09-19T06:24:40;16.00;99.80
21770;DHT22;11046;49.558;8.674;2023-09-19T06:27:41;16.10;99.50
21770;DHT22;11046;49.558;8.674;2023-09-19T06:30:43;16.20;99.40
21770;DHT22;11046;49.558;8.674;2023-09-19T06:33:44;16.30;99.30
21770;DHT22;11046;49.558;8.674;2023-09-19T06:36:45;16.50;99.00
21770;DHT22;11046;49.558;8.674;2023-09-19T06:39:46;16.50;99.00
21770;DHT22;11046;49.558;8.674;2023-09-19T06:42:50;16.60;99.00
21770;DHT22;11046;49.558;8.674;2023-09-19T06:45:51;16.70;98.90
21770;DHT22;11046;49.558;8.674;2023-09-19T06:48:52;16.80;98.70
21770;DHT22;11046;49.558;8.674;2023-09-19T06:51:54;17.00;98.50
21770;DHT22;11046;49.558;8.674;2023-09-19T06:54:55;17.10;98.30
21770;DHT22;11046;49.558;8.674;2023-09-19T06:57:56;17.10;98.20
21770;DHT22;11046;49.558;8.674;2023-09-19T07:00:56;17.20;98.30
21770;DHT22;11046;49.558;8.674;2023-09-19T07:03:57;17.20;98.20
21770;DHT22;11046;49.558;8.674;2023-09-19T07:06:58;17.30;98.30
21770;DHT22;11046;49.558;8.674;2023-09-19T07:09:58;17.30;98.20
21770;DHT22;11046;49.558;8.674;2023-09-19T07:13:01;17.30;98.00
21770;DHT22;11046;49.558;8.674;2023-09-19T07:16:01;17.40;98.00
21770;DHT22;11046;49.558;8.674;2023-09-19T07:19:02;17.40;97.90
21770;DHT22;11046;49.558;8.674;2023-09-19T07:22:03;17.50;97.80
21770;DHT22;11046;49.558;8.674;2023-09-19T07:25:04;17.70;97.70
21770;DHT22;11046;49.558;8.674;2023-09-19T07:28:05;17.80;97.40
21770;DHT22;11046;49.558;8.674;2023-09-19T07:31:06;17.80;97.20
21770;DHT22;11046;49.558;8.674;2023-09-19T07:34:10;17.90;97.20
21770;DHT22;11046;49.558;8.674;2023-09-19T07:37:11;18.00;97.00
21770;DHT22;11046;49.558;8.674;2023-09-19T07:40:13;18.10;96.90
21770;DHT22;11046;49.558;8.674;2023-09-19T07:43:14;18.30;96.60
21770;DHT22;11046;49.558;8.674;2023-09-19T07:46:14;18.40;96.30
21770;DHT22;11046;49.558;8.674;2023-09-19T07:49:15;18.50;96.10
21770;DHT22;11046;49.558;8.674;2023-09-19T07:52:16;18.60;96.00
21770;DHT22;11046;49.558;8.674;2023-09-19T07:55:17;18.70;95.90
21770;DHT22;11046;49.558;8.674;2023-09-19T07:58:17;18.90;95.40
21770;DHT22;11046;49.558;8.674;2023-09-19T08:01:18;19.20;95.00
21770;DHT22;11046;49.558;8.674;2023-09-19T08:04:19;19.40;94.30
21770;DHT22;11046;49.558;8.674;2023-09-19T08:07:19;19.40;94.00
21770;DHT22;11046;49.558;8.674;2023-09-19T08:10:20;19.50;93.30
21770;DHT22;11046;49.558;8.674;2023-09-19T08:13:22;19.60;93.20
21770;DHT22;11046;49.558;8.674;2023-09-19T08:16:23;19.70;92.80
21770;DHT22;11046;49.558;8.674;2023-09-19T08:19:25;19.70;92.50
21770;DHT22;11046;49.558;8.674;2023-09-19T08:22:28;19.70;92.40
21770;DHT22;11046;49.558;8.674;2023-09-19T08:25:29;20.00;92.30
21770;DHT22;11046;49.558;8.674;2023-09-19T08:28:30;20.20;91.70
21770;DHT22;11046;49.558;8.674;2023-09-19T08:31:30;20.30;90.90
21770;DHT22;11046;49.558;8.674;2023-09-19T08:34:31;20.10;90.50
21770;DHT22;11046;49.558;8.674;2023-09-19T08:37:34;19.80;90.00
21770;DHT22;11046;49.558;8.674;2023-09-19T08:40:38;19.70;90.00
21770;DHT22;11046;49.558;8.674;2023-09-19T08:43:43;19.50;89.60
21770;DHT22;11046;49.558;8.674;2023-09-19T08:46:44;19.40;90.00
21770;DHT22;11046;49.558;8.674;2023-09-19T08:50:00;19.40;89.90
21770;DHT22;11046;49.558;8.674;2023-09-19T08:53:10;19.40;89.80
21770;DHT22;11046;49.558;8.674;2023-09-19T08:56:12;19.30;89.80
21770;DHT22;11046;49.558;8.674;2023-09-19T08:59:14;19.20;89.70
21770;DHT22;11046;49.558;8.674;2023-09-19T09:02:16;19.20;89.50
21770;DHT22;11046;49.558;8.674;2023-09-19T09:05:19;19.30;89.40
21770;DHT22;11046;49.558;8.674;2023-09-19T09:08:23;19.40;88.90
21770;DHT22;11046;49.558;8.674;2023-09-19T09:11:25;19.50;88.30
21770;DHT22;11046;49.558;8.674;2023-09-19T09:14:26;19.60;87.60
21770;DHT22;11046;49.558;8.674;2023-09-19T09:17:27;19.90;86.70
21770;DHT22;11046;49.558;8.674;2023-09-19T09:20:28;20.20;86.00
21770;DHT22;11046;49.558;8.674;2023-09-19T09:23:29;20.40;85.40
21770;DHT22;11046;49.558;8.674;2023-09-19T09:26:41;20.70;84.50
21770;DHT22;11046;49.558;8.674;2023-09-19T09:29:48;20.80;82.70
21770;DHT22;11046;49.558;8.674;2023-09-19T09:33:11;20.80;82.70
21770;DHT22;11046;49.558;8.674;2023-09-19T09:36:11;21.20;81.80
21770;DHT22;11046;49.558;8.674;2023-09-19T09:39:13;21.50;81.10
21770;DHT22;11046;49.558;8.674;2023-09-19T09:42:32;21.50;79.50
21770;DHT22;11046;49.558;8.674;2023-09-19T09:45:34;21.20;78.40
21770;DHT22;11046;49.558;8.674;2023-09-19T09:48:34;21.10;79.10
21770;DHT22;11046;49.558;8.674;2023-09-19T09:51:45;20.90;78.30
21770;DHT22;11046;49.558;8.674;2023-09-19T09:55:02;20.90;76.90
21770;DHT22;11046;49.558;8.674;2023-09-19T09:58:18;21.00;76.30
21770;DHT22;11046;49.558;8.674;2023-09-19T10:01:19;21.00;74.90
21770;DHT22;11046;49.558;8.674;2023-09-19T10:04:28;21.20;75.70
21770;DHT22;11046;49.558;8.674;2023-09-19T10:07:36;21.40;74.00
21770;DHT22;11046;49.558;8.674;2023-09-19T10:10:40;21.40;74.20
21770;DHT22;11046;49.558;8.674;2023-09-19T10:13:42;21.40;73.20
21770;DHT22;11046;49.558;8.674;2023-09-19T10:16:48;21.30;73.60
21770;DHT22;11046;49.558;8.674;2023-09-19T10:19:55;21.30;73.60
21770;DHT22;11046;49.558;8.674;2023-09-19T10:23:00;21.40;73.30
21770;DHT22;11046;49.558;8.674;2023-09-19T10:26:01;21.60;74.20
21770;DHT22;11046;49.558;8.674;2023-09-19T10:29:03;22.10;74.40
21770;DHT22;11046;49.558;8.674;2023-09-19T10:32:08;22.50;73.00
21770;DHT22;11046;49.558;8.674;2023-09-19T10:35:11;22.70;72.30
21770;DHT22;11046;49.558;8.674;2023-09-19T10:38:15;22.60;71.30
21770;DHT22;11046;49.558;8.674;2023-09-19T10:41:19;22.40;71.30
21770;DHT22;11046;49.558;8.674;2023-09-19T10:44:25;22.00;71.90
21770;DHT22;11046;49.558;8.674;2023-09-19T10:47:26;21.80;71.80
21770;DHT22;11046;49.558;8.674;2023-09-19T10:50:33;21.80;71.90
21770;DHT22;11046;49.558;8.674;2023-09-19T10:53:51;21.80;71.10
21770;DHT22;11046;49.558;8.674;2023-09-19T10:56:53;21.80;70.90
21770;DHT22;11046;49.558;8.674;2023-09-19T11:00:05;21.80;71.50
21770;DHT22;11046;49.558;8.674;2023-09-19T11:03:24;22.00;70.50
21770;DHT22;11046;49.558;8.674;2023-09-19T11:06:31;22.10;70.60
21770;DHT22;11046;49.558;8.674;2023-09-19T11:09:54;22.00;70.70
21770;DHT22;11046;49.558;8.674;2023-09-19T11:12:55;21.90;71.10
21770;DHT22;11046;49.558;8.674;2023-09-19T11:18:58;21.80;70.80
21770;DHT22;11046;49.558;8.674;2023-09-19T11:22:07;21.70;71.10
21770;DHT22;11046;49.558;8.674;2023-09-19T11:28:39;22.00;69.90
21770;DHT22;11046;49.558;8.674;2023-09-19T11:31:43;22.20;70.00
21770;DHT22;11046;49.558;8.674;2023-09-19T11:34:48;22.60;68.90
21770;DHT22;11046;49.558;8.674;2023-09-19T11:44:33;23.10;65.40
21770;DHT22;11046;49.558;8.674;2023-09-19T11:47:34;23.10;65.40
21770;DHT22;11046;49.558;8.674;2023-09-19T11:50:36;23.20;65.80
21770;DHT22;11046;49.558;8.674;2023-09-19T11:53:38;23.30;66.00
21770;DHT22;11046;49.558;8.674;2023-09-19T11:56:40;23.60;65.20
21770;DHT22;11046;49.558;8.674;2023-09-19T11:59:42;23.70;64.70
21770;DHT22;11046;49.558;8.674;2023-09-19T12:02:46;23.80;64.50
21770;DHT22;11046;49.558;8.674;2023-09-19T12:05:47;23.90;62.80
21770;DHT22;11046;49.558;8.674;2023-09-19T12:08:48;23.50;62.30
21770;DHT22;11046;49.558;8.674;2023-09-19T12:11:50;23.20;62.70
21770;DHT22;11046;49.558;8.674;2023-09-19T12:14:52;23.10;62.80
21770;DHT22;11046;49.558;8.674;2023-09-19T12:17:53;23.20;64.10
21770;DHT22;11046;49.558;8.674;2023-09-19T12:20:54;23.50;63.80
21770;DHT22;11046;49.558;8.674;2023-09-19T12:24:12;23.60;62.60
21770;DHT22;11046;49.558;8.674;2023-09-19T12:27:19;23.40;61.30
21770;DHT22;11046;49.558;8.674;2023-09-19T12:30:27;23.60;62.50
21770;DHT22;11046;49.558;8.674;2023-09-19T12:33:28;23.80;60.60
21770;DHT22;11046;49.558;8.674;2023-09-19T12:36:29;23.80;61.70
21770;DHT22;11046;49.558;8.674;2023-09-19T12:39:30;23.50;60.10
21770;DHT22;11046;49.558;8.674;2023-09-19T12:42:31;23.50;60.60
21770;DHT22;11046;49.558;8.674;2023-09-19T12:45:36;23.60;61.10
21770;DHT22;11046;49.558;8.674;2023-09-19T12:48:39;23.70;60.90
21770;DHT22;11046;49.558;8.674;2023-09-19T12:51:46;23.80;60.90
21770;DHT22;11046;49.558;8.674;2023-09-19T12:54:46;23.90;60.00
21770;DHT22;11046;49.558;8.674;2023-09-19T12:58:14;23.60;59.50
21770;DHT22;11046;49.558;8.674;2023-09-19T13:01:16;23.70;59.00
21770;DHT22;11046;49.558;8.674;2023-09-19T13:04:21;23.90;60.00
21770;DHT22;11046;49.558;8.674;2023-09-19T13:07:43;23.90;59.50
21770;DHT22;11046;49.558;8.674;2023-09-19T13:11:10;24.10;59.00
21770;DHT22;11046;49.558;8.674;2023-09-19T13:14:23;24.30;58.80
21770;DHT22;11046;49.558;8.674;2023-09-19T13:17:24;24.40;59.40
21770;DHT22;11046;49.558;8.674;2023-09-19T13:20:26;24.60;59.30
21770;DHT22;11046;49.558;8.674;2023-09-19T13:23:32;24.70;58.80
21770;DHT22;11046;49.558;8.674;2023-09-19T13:26:33;24.90;59.30
21770;DHT22;11046;49.558;8.674;2023-09-19T13:29:33;25.00;59.10
21770;DHT22;11046;49.558;8.674;2023-09-19T13:32:34;25.00;58.30
21770;DHT22;11046;49.558;8.674;2023-09-19T13:35:35;24.80;58.00
21770;DHT22;11046;49.558;8.674;2023-09-19T13:38:37;24.80;58.20
21770;DHT22;11046;49.558;8.674;2023-09-19T13:41:37;24.90;58.00
21770;DHT22;11046;49.558;8.674;2023-09-19T13:44:38;25.10;57.80
21770;DHT22;11046;49.558;8.674;2023-09-19T13:47:39;25.10;57.40
21770;DHT22;11046;49.558;8.674;2023-09-19T13:50:41;25.10;57.10
21770;DHT22;11046;49.558;8.674;2023-09-19T13:53:42;24.90;56.90
21770;DHT22;11046;49.558;8.674;2023-09-19T13:56:43;25.10;57.00
21770;DHT22;11046;49.558;8.674;2023-09-19T13:59:43;24.90;56.60
21770;DHT22;11046;49.558;8.674;2023-09-19T14:02:44;24.80;57.50
21770;DHT22;11046;49.558;8.674;2023-09-19T14:05:46;24.80;58.00
21770;DHT22;11046;49.558;8.674;2023-09-19T14:08:48;24.70;57.50
21770;DHT22;11046;49.558;8.674;2023-09-19T14:11:50;24.60;57.20
21770;DHT22;11046;49.558;8.674;2023-09-19T14:14:53;24.40;57.50
21770;DHT22;11046;49.558;8.674;2023-09-19T14:17:57;24.20;57.20
21770;DHT22;11046;49.558;8.674;2023-09-19T14:20:58;24.00;56.90
21770;DHT22;11046;49.558;8.674;2023-09-19T14:23:58;23.90;57.30
21770;DHT22;11046;49.558;8.674;2023-09-19T14:26:59;23.90;57.60
21770;DHT22;11046;49.558;8.674;2023-09-19T14:29:59;23.90;58.00
21770;DHT22;11046;49.558;8.674;2023-09-19T14:33:00;23.90;57.90
21770;DHT22;11046;49.558;8.674;2023-09-19T14:36:08;23.80;57.70
21770;DHT22;11046;49.558;8.674;2023-09-19T14:39:10;23.60;57.50
21770;DHT22;11046;49.558;8.674;2023-09-19T14:42:11;23.60;58.00
21770;DHT22;11046;49.558;8.674;2023-09-19T14:45:12;23.40;58.00
21770;DHT22;11046;49.558;8.674;2023-09-19T14:48:15;23.40;58.20
21770;DHT22;11046;49.558;8.674;2023-09-19T14:51:15;23.50;58.10
21770;DHT22;11046;49.558;8.674;2023-09-19T14:54:16;23.50;58.30
21770;DHT22;11046;49.558;8.674;2023-09-19T14:57:17;23.30;58.20
21770;DHT22;11046;49.558;8.674;2023-09-19T15:00:17;23.30;58.40
21770;DHT22;11046;49.558;8.674;2023-09-19T15:03:20;23.30;58.30
21770;DHT22;11046;49.558;8.674;2023-09-19T15:06:21;23.30;58.50
21770;DHT22;11046;49.558;8.674;2023-09-19T15:09:23;23.40;58.60
21770;DHT22;11046;49.558;8.674;2023-09-19T15:12:26;23.50;58.60
21770;DHT22;11046;49.558;8.674;2023-09-19T15:15:27;23.50;58.80
21770;DHT22;11046;49.558;8.674;2023-09-19T15:18:28;23.40;59.10
21770;DHT22;11046;49.558;8.674;2023-09-19T15:21:31;23.40;59.10
21770;DHT22;11046;49.558;8.674;2023-09-19T15:24:31;23.40;59.40
21770;DHT22;11046;49.558;8.674;2023-09-19T15:27:32;23.40;59.50
21770;DHT22;11046;49.558;8.674;2023-09-19T15:30:37;23.40;59.60
21770;DHT22;11046;49.558;8.674;2023-09-19T15:33:39;23.60;59.70
21770;DHT22;11046;49.558;8.674;2023-09-19T15:36:40;23.60;59.90
21770;DHT22;11046;49.558;8.674;2023-09-19T15:39:42;23.40;59.40
21770;DHT22;11046;49.558;8.674;2023-09-19T15:42:45;23.30;59.60
21770;DHT22;11046;49.558;8.674;2023-09-19T15:45:45;23.20;59.50
21770;DHT22;11046;49.558;8.674;2023-09-19T15:48:46;23.20;59.70
21770;DHT22;11046;49.558;8.674;2023-09-19T15:51:47;23.10;59.80
21770;DHT22;11046;49.558;8.674;2023-09-19T15:54:47;23.00;60.10
21770;DHT22;11046;49.558;8.674;2023-09-19T15:57:48;22.80;60.30
21770;DHT22;11046;49.558;8.674;2023-09-19T16:00:49;22.80;60.50
21770;DHT22;11046;49.558;8.674;2023-09-19T16:03:52;22.80;60.50
21770;DHT22;11046;49.558;8.674;2023-09-19T16:06:54;22.80;60.40
21770;DHT22;11046;49.558;8.674;2023-09-19T16:09:54;22.70;60.40
21770;DHT22;11046;49.558;8.674;2023-09-19T16:12:55;22.70;60.50
21770;DHT22;11046;49.558;8.674;2023-09-19T16:15:56;22.60;61.40
21770;DHT22;11046;49.558;8.674;2023-09-19T16:19:00;22.50;60.80
21770;DHT22;11046;49.558;8.674;2023-09-19T16:22:05;22.40;61.10
21770;DHT22;11046;49.558;8.674;2023-09-19T16:25:06;22.20;61.30
21770;DHT22;11046;49.558;8.674;2023-09-19T16:28:07;22.10;61.80
21770;DHT22;11046;49.558;8.674;2023-09-19T16:31:08;21.90;62.50
21770;DHT22;11046;49.558;8.674;2023-09-19T16:34:08;21.80;62.60
21770;DHT22;11046;49.558;8.674;2023-09-19T16:37:09;21.80;62.80
21770;DHT22;11046;49.558;8.674;2023-09-19T16:40:10;21.80;63.10
21770;DHT22;11046;49.558;8.674;2023-09-19T16:43:11;21.80;63.50
21770;DHT22;11046;49.558;8.674;2023-09-19T16:46:13;21.80;63.70
21770;DHT22;11046;49.558;8.674;2023-09-19T16:49:16;21.80;63.80
21770;DHT22;11046;49.558;8.674;2023-09-19T16:52:17;21.60;63.70
21770;DHT22;11046;49.558;8.674;2023-09-19T16:55:17;21.60;64.10
21770;DHT22;11046;49.558;8.674;2023-09-19T16:58:21;21.60;64.30
21770;DHT22;11046;49.558;8.674;2023-09-19T17:01:22;21.50;64.40
21770;DHT22;11046;49.558;8.674;2023-09-19T17:04:24;21.40;64.50
21770;DHT22;11046;49.558;8.674;2023-09-19T17:07:25;21.30;64.70
21770;DHT22;11046;49.558;8.674;2023-09-19T17:10:29;21.40;64.90
21770;DHT22;11046;49.558;8.674;2023-09-19T17:13:30;21.30;65.00
21770;DHT22;11046;49.558;8.674;2023-09-19T17:16:30;21.10;65.30
21770;DHT22;11046;49.558;8.674;2023-09-19T17:19:32;21.00;65.70
21770;DHT22;11046;49.558;8.674;2023-09-19T17:22:33;21.00;65.80
21770;DHT22;11046;49.558;8.674;2023-09-19T17:25:33;20.90;66.00
21770;DHT22;11046;49.558;8.674;2023-09-19T17:28:35;21.00;66.30
21770;DHT22;11046;49.558;8.674;2023-09-19T17:31:36;20.90;66.50
21770;DHT22;11046;49.558;8.674;2023-09-19T17:34:38;20.80;66.70
21770;DHT22;11046;49.558;8.674;2023-09-19T17:37:39;20.80;66.90
21770;DHT22;11046;49.558;8.674;2023-09-19T17:40:40;20.70;67.30
21770;DHT22;11046;49.558;8.674;2023-09-19T17:43:42;20.70;67.50
21770;DHT22;11046;49.558;8.674;2023-09-19T17:46:43;20.60;67.80
21770;DHT22;11046;49.558;8.674;2023-09-19T17:49:44;20.50;68.10
21770;DHT22;11046;49.558;8.674;2023-09-19T17:52:44;20.40;68.60
21770;DHT22;11046;49.558;8.674;2023-09-19T17:55:45;20.30;68.80
21770;DHT22;11046;49.558;8.674;2023-09-19T17:58:47;20.20;69.00
21770;DHT22;11046;49.558;8.674;2023-09-19T18:01:55;20.00;69.40
21770;DHT22;11046;49.558;8.674;2023-09-19T18:04:55;20.00;70.00
21770;DHT22;11046;49.558;8.674;2023-09-19T18:07:56;19.90;70.20
21770;DHT22;11046;49.558;8.674;2023-09-19T18:10:57;19.80;70.60
21770;DHT22;11046;49.558;8.674;2023-09-19T18:13:58;19.70;70.70
21770;DHT22;11046;49.558;8.674;2023-09-19T18:16:59;19.70;71.00
21770;DHT22;11046;49.558;8.674;2023-09-19T18:20:00;19.60;71.30
21770;DHT22;11046;49.558;8.674;2023-09-19T18:23:01;19.50;71.50
21770;DHT22;11046;49.558;8.674;2023-09-19T18:26:02;19.40;72.00
21770;DHT22;11046;49.558;8.674;2023-09-19T18:29:02;19.30;72.50
21770;DHT22;11046;49.558;8.674;2023-09-19T18:32:04;19.20;73.00
21770;DHT22;11046;49.558;8.674;2023-09-19T18:35:05;19.10;73.20
21770;DHT22;11046;49.558;8.674;2023-09-19T18:38:08;19.10;73.60
21770;DHT22;11046;49.558;8.674;2023-09-19T18:41:09;19.10;73.90
21770;DHT22;11046;49.558;8.674;2023-09-19T18:44:10;19.00;74.20
21770;DHT22;11046;49.558;8.674;2023-09-19T18:47:11;19.00;74.60
21770;DHT22;11046;49.558;8.674;2023-09-19T18:50:12;18.90;75.00
21770;DHT22;11046;49.558;8.674;2023-09-19T18:53:13;18.90;75.60
21770;DHT22;11046;49.558;8.674;2023-09-19T18:56:14;18.80;76.00
21770;DHT22;11046;49.558;8.674;2023-09-19T18:59:15;18.90;76.20
21770;DHT22;11046;49.558;8.674;2023-09-19T19:02:16;18.90;76.30
21770;DHT22;11046;49.558;8.674;2023-09-19T19:05:17;18.90;76.40
21770;DHT22;11046;49.558;8.674;2023-09-19T19:08:17;19.00;76.40
21770;DHT22;11046;49.558;8.674;2023-09-19T19:11:19;18.90;76.30
21770;DHT22;11046;49.558;8.674;2023-09-19T19:14:21;18.90;76.60
21770;DHT22;11046;49.558;8.674;2023-09-19T19:17:22;18.90;76.80
21770;DHT22;11046;49.558;8.674;2023-09-19T19:20:24;18.90;76.90
21770;DHT22;11046;49.558;8.674;2023-09-19T19:23:25;19.00;77.10
21770;DHT22;11046;49.558;8.674;2023-09-19T19:26:28;18.90;77.30
21770;DHT22;11046;49.558;8.674;2023-09-19T19:29:28;18.90;78.30
21770;DHT22;11046;49.558;8.674;2023-09-19T19:32:29;18.90;77.60
21770;DHT22;11046;49.558;8.674;2023-09-19T19:35:30;19.00;77.60
21770;DHT22;11046;49.558;8.674;2023-09-19T19:38:33;19.00;77.70
21770;DHT22;11046;49.558;8.674;2023-09-19T19:41:35;18.90;78.00